Aviation Digital Data Service (ADDS)

Output produced by METARs form (1215 UTC 22 March 2019)
found at http://www.aviationweather.gov/metar/data/
 
METAR text: VTCN 221200Z 02003KT 6000 NSC 28/14 Q1007 NOSIG
Conditions at: VTCN (NAN/MUANG NAN , TH) observed 1200 UTC 22 March 2019
Temperature: 28.0°C (82°F)
Dewpoint: 14.0°C (57°F) [RH = 42%]
Pressure (altimeter): 29.73 inches Hg (1007.0 mb)
Winds: from the NNE (20 degrees) at 3 MPH (3 knots; 1.5 m/s)
Visibility: 4 miles ( 6 km)
Ceiling: at least 12,000 feet AGL
Clouds: sky clear below 12,000 feet AGL
Weather: no significant weather observed at this time

METAR text: VTCN 221100Z 32003KT 6000 NSC 32/12 Q1006 NOSIG
Conditions at: VTCN (NAN/MUANG NAN , TH) observed 1100 UTC 22 March 2019
Temperature: 32.0°C (90°F)
Dewpoint: 12.0°C (54°F) [RH = 30%]
Pressure (altimeter): 29.70 inches Hg (1006.0 mb)
Winds: from the NW (320 degrees) at 3 MPH (3 knots; 1.5 m/s)
Visibility: 4 miles ( 6 km)
Ceiling: at least 12,000 feet AGL
Clouds: sky clear below 12,000 feet AGL
Weather: no significant weather observed at this time

METAR text: VTCN 221000Z VRB02KT 7000 NSC 36/13 Q1006 NOSIG
Conditions at: VTCN (NAN/MUANG NAN , TH) observed 1000 UTC 22 March 2019
Temperature: 36.0°C (97°F)
Dewpoint: 13.0°C (55°F) [RH = 25%]
Pressure (altimeter): 29.70 inches Hg (1006.0 mb)
Winds: variable direction winds at 2 MPH (2 knots; 1.0 m/s)
Visibility: 4 miles ( 7 km)
Ceiling: at least 12,000 feet AGL
Clouds: sky clear below 12,000 feet AGL
Weather: no significant weather observed at this time

METAR text: VTCN 220900Z VRB02KT 7000 NSC 37/13 Q1005 NOSIG
Conditions at: VTCN (NAN/MUANG NAN , TH) observed 0900 UTC 22 March 2019
Temperature: 37.0°C (99°F)
Dewpoint: 13.0°C (55°F) [RH = 24%]
Pressure (altimeter): 29.68 inches Hg (1005.0 mb)
Winds: variable direction winds at 2 MPH (2 knots; 1.0 m/s)
Visibility: 4 miles ( 7 km)
Ceiling: at least 12,000 feet AGL
Clouds: sky clear below 12,000 feet AGL
Weather: no significant weather observed at this time

METAR text: VTCN 220800Z 04004KT 010V100 7000 NSC 36/13 Q1006 NOSIG
Conditions at: VTCN (NAN/MUANG NAN , TH) observed 0800 UTC 22 March 2019
Temperature: 36.0°C (97°F)
Dewpoint: 13.0°C (55°F) [RH = 25%]
Pressure (altimeter): 29.70 inches Hg (1006.0 mb)
Winds: from the NE (40 degrees) at 5 MPH (4 knots; 2.1 m/s)
Visibility: 4 miles ( 7 km)
Ceiling: at least 12,000 feet AGL
Clouds: sky clear below 12,000 feet AGL
Weather: no significant weather observed at this time

METAR text: VTCN 220700Z 01006KT 3100V040 7000 NSC 36/14 Q1007 NOSIG
Conditions at: VTCN (NAN/MUANG NAN , TH) observed 0700 UTC 22 March 2019
Temperature: 36.0°C (97°F)
Dewpoint: 14.0°C (57°F) [RH = 27%]
Pressure (altimeter): 29.73 inches Hg (1007.0 mb)
Winds: from the N (10 degrees) at 7 MPH (6 knots; 3.1 m/s)
Visibility: 4 miles ( 7 km)
Ceiling: at least 12,000 feet AGL
Clouds: sky clear below 12,000 feet AGL
Weather: no significant weather observed at this time

METAR text: VTCN 220600Z VRB02KT 7000 NSC 34/15 Q1009 NOSIG
Conditions at: VTCN (NAN/MUANG NAN , TH) observed 0600 UTC 22 March 2019
Temperature: 34.0°C (93°F)
Dewpoint: 15.0°C (59°F) [RH = 32%]
Pressure (altimeter): 29.79 inches Hg (1009.0 mb)
Winds: variable direction winds at 2 MPH (2 knots; 1.0 m/s)
Visibility: 4 miles ( 7 km)
Ceiling: at least 12,000 feet AGL
Clouds: sky clear below 12,000 feet AGL
Weather: no significant weather observed at this time

METAR text: VTCN 220500Z VRB02KT 7000 NSC 33/15 Q1010 NOSIG
Conditions at: VTCN (NAN/MUANG NAN , TH) observed 0500 UTC 22 March 2019
Temperature: 33.0°C (91°F)
Dewpoint: 15.0°C (59°F) [RH = 34%]
Pressure (altimeter): 29.82 inches Hg (1010.0 mb)
Winds: variable direction winds at 2 MPH (2 knots; 1.0 m/s)
Visibility: 4 miles ( 7 km)
Ceiling: at least 12,000 feet AGL
Clouds: sky clear below 12,000 feet AGL
Weather: no significant weather observed at this time

METAR text: VTCN 220400Z VRB01KT 7000 NSC 32/15 Q1011 NOSIG
Conditions at: VTCN (NAN/MUANG NAN , TH) observed 0400 UTC 22 March 2019
Temperature: 32.0°C (90°F)
Dewpoint: 15.0°C (59°F) [RH = 36%]
Pressure (altimeter): 29.85 inches Hg (1011.0 mb)
Winds: variable direction winds at 1 MPH (1 knots; 0.5 m/s)
Visibility: 4 miles ( 7 km)
Ceiling: at least 12,000 feet AGL
Clouds: sky clear below 12,000 feet AGL
Weather: no significant weather observed at this time

METAR text: VTCN 220300Z VRB02KT 7000 NSC 27/16 Q1012 NOSIG
Conditions at: VTCN (NAN/MUANG NAN , TH) observed 0300 UTC 22 March 2019
Temperature: 27.0°C (81°F)
Dewpoint: 16.0°C (61°F) [RH = 51%]
Pressure (altimeter): 29.88 inches Hg (1012.0 mb)
Winds: variable direction winds at 2 MPH (2 knots; 1.0 m/s)
Visibility: 4 miles ( 7 km)
Ceiling: at least 12,000 feet AGL
Clouds: sky clear below 12,000 feet AGL
Weather: no significant weather observed at this time

METAR text: VTCN 220200Z VRB02KT 7000 NSC 23/17 Q1012 NOSIG
Conditions at: VTCN (NAN/MUANG NAN , TH) observed 0200 UTC 22 March 2019
Temperature: 23.0°C (73°F)
Dewpoint: 17.0°C (63°F) [RH = 69%]
Pressure (altimeter): 29.88 inches Hg (1012.0 mb)
Winds: variable direction winds at 2 MPH (2 knots; 1.0 m/s)
Visibility: 4 miles ( 7 km)
Ceiling: at least 12,000 feet AGL
Clouds: sky clear below 12,000 feet AGL
Weather: no significant weather observed at this time

METAR text: VTCN 220100Z VRB02KT 6000 NSC 19/17 Q1011 NOSIG
Conditions at: VTCN (NAN/MUANG NAN , TH) observed 0100 UTC 22 March 2019
Temperature: 19.0°C (66°F)
Dewpoint: 17.0°C (63°F) [RH = 88%]
Pressure (altimeter): 29.85 inches Hg (1011.0 mb)
Winds: variable direction winds at 2 MPH (2 knots; 1.0 m/s)
Visibility: 4 miles ( 6 km)
Ceiling: at least 12,000 feet AGL
Clouds: sky clear below 12,000 feet AGL
Weather: no significant weather observed at this time

METAR text: VTCN 220000Z VRB02KT 6000 NSC 17/17 Q1010 NOSIG
Conditions at: VTCN (NAN/MUANG NAN , TH) observed 0000 UTC 22 March 2019
Temperature: 17.0°C (63°F)
Dewpoint: 17.0°C (63°F) [RH = 100%]
Pressure (altimeter): 29.82 inches Hg (1010.0 mb)
Winds: variable direction winds at 2 MPH (2 knots; 1.0 m/s)
Visibility: 4 miles ( 6 km)
Ceiling: at least 12,000 feet AGL
Clouds: sky clear below 12,000 feet AGL
Weather: no significant weather observed at this time

METAR text: VTCN 212300Z VRB02KT 6000 NSC 17/17 Q1009 NOSIG
Conditions at: VTCN (NAN/MUANG NAN , TH) observed 2300 UTC 21 March 2019
Temperature: 17.0°C (63°F)
Dewpoint: 17.0°C (63°F) [RH = 100%]
Pressure (altimeter): 29.79 inches Hg (1009.0 mb)
Winds: variable direction winds at 2 MPH (2 knots; 1.0 m/s)
Visibility: 4 miles ( 6 km)
Ceiling: at least 12,000 feet AGL
Clouds: sky clear below 12,000 feet AGL
Weather: no significant weather observed at this time

METAR text: VTCN 211400Z 36003KT CAVOK 24/17 Q1008 NOSIG
Conditions at: VTCN (NAN/MUANG NAN , TH) observed 1400 UTC 21 March 2019
Temperature: 24.0°C (75°F)
Dewpoint: 17.0°C (63°F) [RH = 65%]
Pressure (altimeter): 29.76 inches Hg (1008.0 mb)
Winds: from the N (360 degrees) at 3 MPH (3 knots; 1.5 m/s)
Visibility: 6 or more miles (10+ km)
Ceiling: ceiling and visibility are OK
Clouds: unknown
Weather: no significant weather observed at this time

METAR text: VTCN 211300Z 35003KT CAVOK 26/16 Q1007 NOSIG
Conditions at: VTCN (NAN/MUANG NAN , TH) observed 1300 UTC 21 March 2019
Temperature: 26.0°C (79°F)
Dewpoint: 16.0°C (61°F) [RH = 54%]
Pressure (altimeter): 29.73 inches Hg (1007.0 mb)
Winds: from the N (350 degrees) at 3 MPH (3 knots; 1.5 m/s)
Visibility: 6 or more miles (10+ km)
Ceiling: ceiling and visibility are OK
Clouds: unknown
Weather: no significant weather observed at this time

METAR text: VTCN 211200Z VRB01KT CAVOK 29/14 Q1006 NOSIG
Conditions at: VTCN (NAN/MUANG NAN , TH) observed 1200 UTC 21 March 2019
Temperature: 29.0°C (84°F)
Dewpoint: 14.0°C (57°F) [RH = 40%]
Pressure (altimeter): 29.70 inches Hg (1006.0 mb)
Winds: variable direction winds at 1 MPH (1 knots; 0.5 m/s)
Visibility: 6 or more miles (10+ km)
Ceiling: ceiling and visibility are OK
Clouds: unknown
Weather: no significant weather observed at this time

METAR text: VTCN 211100Z VRB02KT CAVOK 34/13 Q1006 NOSIG
Conditions at: VTCN (NAN/MUANG NAN , TH) observed 1100 UTC 21 March 2019
Temperature: 34.0°C (93°F)
Dewpoint: 13.0°C (55°F) [RH = 28%]
Pressure (altimeter): 29.70 inches Hg (1006.0 mb)
Winds: variable direction winds at 2 MPH (2 knots; 1.0 m/s)
Visibility: 6 or more miles (10+ km)
Ceiling: ceiling and visibility are OK
Clouds: unknown
Weather: no significant weather observed at this time

METAR text: VTCN 211000Z 13003KT 060V170 CAVOK 37/13 Q1005 NOSIG
Conditions at: VTCN (NAN/MUANG NAN , TH) observed 1000 UTC 21 March 2019
Temperature: 37.0°C (99°F)
Dewpoint: 13.0°C (55°F) [RH = 24%]
Pressure (altimeter): 29.68 inches Hg (1005.0 mb)
Winds: from the SE (130 degrees) at 3 MPH (3 knots; 1.5 m/s)
Visibility: 6 or more miles (10+ km)
Ceiling: ceiling and visibility are OK
Clouds: unknown
Weather: no significant weather observed at this time

METAR text: VTCN 210900Z 14005KT 080V180 9999 FEW025 37/13 Q1005 NOSIG
Conditions at: VTCN (NAN/MUANG NAN , TH) observed 0900 UTC 21 March 2019
Temperature: 37.0°C (99°F)
Dewpoint: 13.0°C (55°F) [RH = 24%]
Pressure (altimeter): 29.68 inches Hg (1005.0 mb)
Winds: from the SE (140 degrees) at 6 MPH (5 knots; 2.6 m/s)
Visibility: 6 or more miles (10+ km)
Ceiling: at least 12,000 feet AGL
Clouds: few clouds at 2500 feet AGL
Weather: no significant weather observed at this time

METAR text: VTCN 210800Z 18005KT 140V260 9999 FEW025 38/15 Q1006 NOSIG
Conditions at: VTCN (NAN/MUANG NAN , TH) observed 0800 UTC 21 March 2019
Temperature: 38.0°C (100°F)
Dewpoint: 15.0°C (59°F) [RH = 26%]
Pressure (altimeter): 29.70 inches Hg (1006.0 mb)
Winds: from the S (180 degrees) at 6 MPH (5 knots; 2.6 m/s)
Visibility: 6 or more miles (10+ km)
Ceiling: at least 12,000 feet AGL
Clouds: few clouds at 2500 feet AGL
Weather: no significant weather observed at this time

METAR text: VTCN 210700Z 17006KT 100V220 9000 FEW025 38/15 Q1007 NOSIG
Conditions at: VTCN (NAN/MUANG NAN , TH) observed 0700 UTC 21 March 2019
Temperature: 38.0°C (100°F)
Dewpoint: 15.0°C (59°F) [RH = 26%]
Pressure (altimeter): 29.73 inches Hg (1007.0 mb)
Winds: from the S (170 degrees) at 7 MPH (6 knots; 3.1 m/s)
Visibility: 6 miles ( 9 km)
Ceiling: at least 12,000 feet AGL
Clouds: few clouds at 2500 feet AGL
Weather: no significant weather observed at this time

METAR text: VTCN 210600Z VRB04KT 9000 FEW025 36/14 Q1009 NOSIG
Conditions at: VTCN (NAN/MUANG NAN , TH) observed 0600 UTC 21 March 2019
Temperature: 36.0°C (97°F)
Dewpoint: 14.0°C (57°F) [RH = 27%]
Pressure (altimeter): 29.79 inches Hg (1009.0 mb)
Winds: variable direction winds at 5 MPH (4 knots; 2.1 m/s)
Visibility: 6 miles ( 9 km)
Ceiling: at least 12,000 feet AGL
Clouds: few clouds at 2500 feet AGL
Weather: no significant weather observed at this time

METAR text: VTCN 210500Z VRB02KT 8000 NSC 35/15 Q1010 NOSIG
Conditions at: VTCN (NAN/MUANG NAN , TH) observed 0500 UTC 21 March 2019
Temperature: 35.0°C (95°F)
Dewpoint: 15.0°C (59°F) [RH = 30%]
Pressure (altimeter): 29.82 inches Hg (1010.0 mb)
Winds: variable direction winds at 2 MPH (2 knots; 1.0 m/s)
Visibility: 5 miles ( 8 km)
Ceiling: at least 12,000 feet AGL
Clouds: sky clear below 12,000 feet AGL
Weather: no significant weather observed at this time

METAR text: VTCN 210400Z 17004KT 060V220 8000 NSC 33/17 Q1011 NOSIG
Conditions at: VTCN (NAN/MUANG NAN , TH) observed 0400 UTC 21 March 2019
Temperature: 33.0°C (91°F)
Dewpoint: 17.0°C (63°F) [RH = 39%]
Pressure (altimeter): 29.85 inches Hg (1011.0 mb)
Winds: from the S (170 degrees) at 5 MPH (4 knots; 2.1 m/s)
Visibility: 5 miles ( 8 km)
Ceiling: at least 12,000 feet AGL
Clouds: sky clear below 12,000 feet AGL
Weather: no significant weather observed at this time

METAR text: VTCN 210300Z VRB02KT 8000 NSC 30/17 Q1012 NOSIG
Conditions at: VTCN (NAN/MUANG NAN , TH) observed 0300 UTC 21 March 2019
Temperature: 30.0°C (86°F)
Dewpoint: 17.0°C (63°F) [RH = 46%]
Pressure (altimeter): 29.88 inches Hg (1012.0 mb)
Winds: variable direction winds at 2 MPH (2 knots; 1.0 m/s)
Visibility: 5 miles ( 8 km)
Ceiling: at least 12,000 feet AGL
Clouds: sky clear below 12,000 feet AGL
Weather: no significant weather observed at this time

METAR text: VTCN 210200Z VRB02KT 8000 NSC 27/18 Q1012 NOSIG
Conditions at: VTCN (NAN/MUANG NAN , TH) observed 0200 UTC 21 March 2019
Temperature: 27.0°C (81°F)
Dewpoint: 18.0°C (64°F) [RH = 58%]
Pressure (altimeter): 29.88 inches Hg (1012.0 mb)
Winds: variable direction winds at 2 MPH (2 knots; 1.0 m/s)
Visibility: 5 miles ( 8 km)
Ceiling: at least 12,000 feet AGL
Clouds: sky clear below 12,000 feet AGL
Weather: no significant weather observed at this time

METAR text: VTCN 210100Z VRB02KT 7000 NSC 22/20 Q1011 NOSIG
Conditions at: VTCN (NAN/MUANG NAN , TH) observed 0100 UTC 21 March 2019
Temperature: 22.0°C (72°F)
Dewpoint: 20.0°C (68°F) [RH = 88%]
Pressure (altimeter): 29.85 inches Hg (1011.0 mb)
Winds: variable direction winds at 2 MPH (2 knots; 1.0 m/s)
Visibility: 4 miles ( 7 km)
Ceiling: at least 12,000 feet AGL
Clouds: sky clear below 12,000 feet AGL
Weather: no significant weather observed at this time

Forecast for: VTCN (NAN/MUANG NAN , TH)
Text: TAF VTCN 221100Z 2212/2312 01005KT 7000 FEW030
Forecast period: 1200 UTC 22 March 2019 to 1200 UTC 23 March 2019
Forecast type: FROM: standard forecast or significant change
Winds: from the N (10 degrees) at 6 MPH (5 knots; 2.6 m/s)
Visibility: 4 miles (7 km)
Ceiling: at least 12,000 feet AGL
Clouds: few clouds at 3000 feet AGL
Weather: no significant weather forecast for this period